Stittville, NY (13469)

4:35 AM EDT on July 27, 2016 (GMT -0400)
Marcy | | Change Station

Elev 814 ft 43.19 °N, 75.27 °W | Updated 1 second ago

Clear
Clear
56.3 °F
Feels Like 56.3 °F
N
0.0
Wind Variable Wind from ENE
Gusts 0.0 mph

Today
High -- | Low -- °F
--% Chance of Precip.
Yesterday
High -- | Low -- °F
Precip. -- in
Pressure 29.96 in
Visibility 10.0 miles
Clouds Clear
Dew Point 53 °F
Humidity 89%
Rainfall 0.00 in
Snow Depth Not available.
5:46 AM 8:27 PM
Last Quarter, 45% visible
METAR KRME 270753Z AUTO 13003KT 10SM CLR 16/15 A2997 RMK AO2 SLP145 T01560150 $
Pressure 29.96 in
Visibility 10.0 miles
Clouds Clear
Dew Point 53 °F
Humidity 89%
Rainfall 0.00 in
Snow Depth Not available.
5:46 AM 8:27 PM
Last Quarter, 45% visible
METAR KRME 270753Z AUTO 13003KT 10SM CLR 16/15 A2997 RMK AO2 SLP145 T01560150 $

10-Day Weather Forecast

Almanac

Astronomy

Jul. 27, 2016 Rise Set
Actual Time
Civil Twilight
Nautical Twilight
Astronomical Twilight
Moon
Length of Visible Light
Length of Day
Tomorrow will be .
, % of the Moon is Illuminated

Today's Extremes

State Highs State Lows

Community

WunderPhotos

Upload Photos

1,927,818 photos uploaded!

WunderBlog® & News

Nearby

Air Quality

  Air Quality AQ Index Pollutant
Not available.

Snow Depth

Station Depth Elevation

Earthquake Activity

City Distance Mag. Time & Date
Minimum magnitude displayed is 2.5.

Coastal Water Temperatures

Place Temperature

Stations

Nearby Weather Stations

Station Location Temp. Windchill Dew Point Humidity Wind Precip. Elev Updated Type
                   

Watches & Warnings

There are currently no watches in effect.